createdAt,value
2023-02-11T00:01:32.597Z,3.38
2023-02-11T00:04:00.850Z,3.65
2023-02-11T00:06:29.637Z,3.75
2023-02-11T00:08:57.579Z,3.13
2023-02-11T00:11:30.566Z,3.60
2023-02-11T00:14:00.911Z,3.97
2023-02-11T00:16:29.666Z,3.50
2023-02-11T00:18:57.169Z,3.50
2023-02-11T00:21:26.822Z,3.63
2023-02-11T00:23:55.027Z,3.30
2023-02-11T00:26:29.903Z,4.00
2023-02-11T00:28:57.244Z,3.22
2023-02-11T00:31:26.065Z,2.90
2023-02-11T00:33:53.646Z,3.47
2023-02-11T00:36:27.583Z,3.63
2023-02-11T00:38:56.342Z,3.10
2023-02-11T00:41:23.747Z,2.85
2023-02-11T00:43:52.571Z,3.55
2023-02-11T00:46:20.592Z,3.50
2023-02-11T00:48:47.981Z,3.88
2023-02-11T00:51:15.685Z,3.38
2023-02-11T00:53:43.258Z,3.53
2023-02-11T00:56:10.671Z,4.20
2023-02-11T00:58:38.364Z,3.22
2023-02-11T01:01:05.646Z,4.28
2023-02-11T01:03:32.965Z,3.90
2023-02-11T01:06:00.287Z,3.25
2023-02-11T01:08:27.916Z,2.70
2023-02-11T01:11:04.831Z,3.65
2023-02-11T01:13:34.610Z,3.15
2023-02-11T01:16:02.237Z,3.60
2023-02-11T01:18:29.578Z,3.50
2023-02-11T01:20:56.676Z,4.07
2023-02-11T01:23:23.941Z,3.83
2023-02-11T01:25:52.024Z,3.70
2023-02-11T01:28:22.939Z,3.45
2023-02-11T01:30:50.256Z,3.92
2023-02-11T01:33:18.221Z,4.00
2023-02-11T01:35:45.968Z,3.72
2023-02-11T01:38:18.782Z,3.60
2023-02-11T01:41:00.153Z,3.03
2023-02-11T01:43:32.511Z,3.15
2023-02-11T01:46:31.185Z,3.78
2023-02-11T01:49:11.221Z,3.72
2023-02-11T01:51:45.435Z,3.50
2023-02-11T01:54:36.083Z,3.60
2023-02-11T01:57:23.209Z,3.80
2023-02-11T02:00:24.204Z,3.33
2023-02-11T02:03:15.640Z,3.40
2023-02-11T02:06:08.149Z,3.38
2023-02-11T02:08:50.275Z,2.92
2023-02-11T02:11:17.456Z,3.50
2023-02-11T02:13:45.322Z,3.47
2023-02-11T02:16:17.034Z,3.38
2023-02-11T02:19:37.223Z,2.80
2023-02-11T02:22:38.221Z,3.13
2023-02-11T02:25:23.180Z,3.67
2023-02-11T02:28:43.231Z,3.35
2023-02-11T02:32:02.337Z,3.08
2023-02-11T02:34:42.331Z,3.42
2023-02-11T02:37:20.954Z,2.95
2023-02-11T02:39:50.460Z,3.20
2023-02-11T02:42:20.440Z,3.28
2023-02-11T02:44:52.362Z,4.00
2023-02-11T02:47:19.895Z,3.70
2023-02-11T02:49:47.147Z,4.03
2023-02-11T02:53:02.435Z,3.57
2023-02-11T02:55:29.516Z,3.60
2023-02-11T02:58:53.184Z,3.20
2023-02-11T03:01:43.127Z,3.33
2023-02-11T03:04:36.141Z,3.72
2023-02-11T03:07:28.124Z,3.37
2023-02-11T03:10:14.373Z,3.38
2023-02-11T03:12:44.524Z,3.40
2023-02-11T03:15:13.239Z,3.45
2023-02-11T03:17:46.566Z,3.60
2023-02-11T03:20:17.921Z,3.60
2023-02-11T03:23:14.874Z,4.03
2023-02-11T03:25:50.381Z,3.28
2023-02-11T03:28:45.319Z,3.60
2023-02-11T03:31:33.250Z,3.15
2023-02-11T03:34:19.850Z,2.63
2023-02-11T03:37:22.561Z,3.22
2023-02-11T03:40:19.453Z,3.80
2023-02-11T03:43:00.490Z,3.90
2023-02-11T03:45:28.972Z,4.10
2023-02-11T03:48:12.031Z,3.77
2023-02-11T03:50:40.958Z,3.95
2023-02-11T03:53:09.074Z,4.10
2023-02-11T03:55:40.446Z,4.10
2023-02-11T03:58:08.566Z,3.95
2023-02-11T04:00:41.901Z,4.10
2023-02-11T04:03:11.234Z,3.90
2023-02-11T04:05:39.317Z,4.00
2023-02-11T04:08:06.732Z,3.53
2023-02-11T04:10:33.852Z,5.15
2023-02-11T04:13:00.992Z,3.47
2023-02-11T04:15:28.320Z,3.97
2023-02-11T04:17:55.436Z,4.53
2023-02-11T04:20:22.525Z,3.20
2023-02-11T04:22:49.622Z,4.55
2023-02-11T04:25:16.945Z,4.60
2023-02-11T04:27:44.019Z,3.90
2023-02-11T04:30:11.766Z,4.60
2023-02-11T04:32:38.965Z,4.03
2023-02-11T04:35:06.863Z,4.22
2023-02-11T04:37:34.047Z,4.13
2023-02-11T04:40:01.210Z,4.20
2023-02-11T04:42:28.463Z,4.70
2023-02-11T04:44:55.603Z,4.65
2023-02-11T04:47:22.894Z,3.78
2023-02-11T04:49:50.033Z,4.83
2023-02-11T04:52:17.174Z,5.43
2023-02-11T04:54:44.600Z,4.00
2023-02-11T04:57:11.681Z,4.78
2023-02-11T04:59:38.901Z,4.38
2023-02-11T05:02:05.965Z,4.37
2023-02-11T05:04:33.170Z,4.72
2023-02-11T05:07:00.263Z,4.72
2023-02-11T05:09:27.373Z,4.38
2023-02-11T05:11:54.525Z,4.95
2023-02-11T05:14:21.729Z,4.77
2023-02-11T05:16:48.840Z,4.63
2023-02-11T05:19:16.008Z,5.20
2023-02-11T05:21:56.671Z,4.68
2023-02-11T05:24:27.575Z,5.03
2023-02-11T05:26:54.690Z,4.70
2023-02-11T05:29:21.745Z,5.18
2023-02-11T05:31:49.042Z,5.00
2023-02-11T05:34:16.216Z,4.68
2023-02-11T05:36:43.308Z,4.40
2023-02-11T05:39:10.483Z,4.93
2023-02-11T05:41:38.289Z,5.25
2023-02-11T05:44:05.461Z,5.72
2023-02-11T05:46:32.649Z,5.72
2023-02-11T05:48:59.991Z,5.35
2023-02-11T05:51:27.247Z,5.40
2023-02-11T05:53:54.562Z,5.82
2023-02-11T05:56:21.608Z,5.85
2023-02-11T05:58:48.707Z,6.63
2023-02-11T06:01:15.815Z,5.50
2023-02-11T06:03:43.120Z,6.93
2023-02-11T06:06:12.348Z,7.13
2023-02-11T06:08:39.801Z,6.50
2023-02-11T06:11:07.363Z,7.07
2023-02-11T06:13:35.643Z,7.10
2023-02-11T06:16:03.589Z,7.40
2023-02-11T06:18:30.839Z,7.15
2023-02-11T06:20:57.931Z,5.75
2023-02-11T06:23:25.194Z,5.97
2023-02-11T06:25:53.577Z,7.07
2023-02-11T06:28:20.895Z,7.40
2023-02-11T06:30:48.156Z,6.57
2023-02-11T06:33:16.100Z,7.65
2023-02-11T06:35:43.234Z,6.97
2023-02-11T06:38:10.366Z,7.10
2023-02-11T06:40:37.470Z,7.50
2023-02-11T06:43:04.538Z,8.52
2023-02-11T06:45:31.717Z,6.95
2023-02-11T06:47:58.796Z,7.13
2023-02-11T06:50:25.892Z,7.30
2023-02-11T06:52:53.067Z,7.33
2023-02-11T06:55:20.229Z,7.25
2023-02-11T06:57:47.354Z,7.32
2023-02-11T07:00:14.994Z,7.05
2023-02-11T07:02:42.244Z,7.05
2023-02-11T07:05:10.109Z,7.10
2023-02-11T07:07:37.551Z,6.97
2023-02-11T07:10:05.912Z,7.70
2023-02-11T07:12:33.190Z,7.85
2023-02-11T07:15:00.405Z,7.15
2023-02-11T07:17:27.498Z,7.37
2023-02-11T07:19:54.697Z,8.15
2023-02-11T07:22:21.787Z,7.78
2023-02-11T07:24:48.920Z,7.70
2023-02-11T07:27:16.100Z,7.95
2023-02-11T07:29:43.608Z,8.20
2023-02-11T07:32:10.807Z,7.15
2023-02-11T07:34:38.159Z,7.90
2023-02-11T07:37:05.408Z,8.20
2023-02-11T07:39:32.740Z,7.85
2023-02-11T07:42:00.234Z,9.10
2023-02-11T07:44:27.993Z,8.88
2023-02-11T07:46:55.171Z,8.20
2023-02-11T07:49:22.299Z,8.23
2023-02-11T07:51:51.324Z,8.95
2023-02-11T07:54:18.903Z,8.27
2023-02-11T07:56:46.076Z,8.57
2023-02-11T07:59:13.380Z,8.35
2023-02-11T08:01:40.644Z,9.13
2023-02-11T08:04:07.804Z,9.02
2023-02-11T08:06:35.961Z,9.03
2023-02-11T08:09:09.393Z,9.00
2023-02-11T08:11:36.961Z,8.40
2023-02-11T08:14:04.216Z,8.68
2023-02-11T08:16:34.875Z,9.18
2023-02-11T08:19:06.500Z,9.33
2023-02-11T08:21:33.792Z,8.25
2023-02-11T08:24:03.942Z,10.23
2023-02-11T08:26:34.730Z,8.93
2023-02-11T08:29:08.018Z,9.35
2023-02-11T08:31:39.276Z,8.80
2023-02-11T08:34:07.666Z,8.68
2023-02-11T08:36:37.776Z,9.95
2023-02-11T08:39:19.106Z,9.23
2023-02-11T08:41:53.248Z,9.57
2023-02-11T08:44:22.524Z,9.10
2023-02-11T08:46:51.473Z,9.27
2023-02-11T08:49:19.547Z,9.93
2023-02-11T08:51:47.242Z,9.77
2023-02-11T08:54:15.382Z,9.07
2023-02-11T08:56:43.344Z,10.00
2023-02-11T08:59:14.835Z,8.65
2023-02-11T09:01:42.244Z,9.23
2023-02-11T09:04:10.708Z,9.20
2023-02-11T09:06:37.793Z,10.65
2023-02-11T09:09:05.196Z,8.63
2023-02-11T09:11:35.585Z,10.75
2023-02-11T09:14:05.058Z,9.23
2023-02-11T09:16:36.062Z,8.85
2023-02-11T09:19:05.350Z,9.55
2023-02-11T09:21:32.586Z,8.80
2023-02-11T09:23:59.916Z,9.32
2023-02-11T09:26:31.149Z,9.25
2023-02-11T09:28:59.074Z,8.95
2023-02-11T09:31:28.492Z,10.10
2023-02-11T09:34:02.263Z,10.80
2023-02-11T09:36:37.655Z,11.10
2023-02-11T09:39:08.527Z,8.95
2023-02-11T09:42:05.413Z,10.15
2023-02-11T09:44:35.634Z,9.88
2023-02-11T09:47:38.677Z,9.83
2023-02-11T09:50:23.680Z,9.55
2023-02-11T09:53:12.765Z,12.75
2023-02-11T09:55:43.992Z,9.82
2023-02-11T09:58:36.780Z,10.00
2023-02-11T10:01:07.898Z,11.00
2023-02-11T10:03:44.857Z,10.50
2023-02-11T10:06:55.874Z,11.20
2023-02-11T10:09:44.939Z,10.07
2023-02-11T10:12:59.030Z,10.20
2023-02-11T10:15:49.819Z,9.77
2023-02-11T10:18:47.104Z,11.63
2023-02-11T10:21:50.707Z,10.63
2023-02-11T10:24:19.135Z,10.82
2023-02-11T10:26:47.028Z,10.27
2023-02-11T10:29:39.089Z,10.60
2023-02-11T10:32:39.698Z,10.15
2023-02-11T10:35:21.240Z,11.63
2023-02-11T10:37:49.153Z,11.70
2023-02-11T10:40:24.641Z,11.75
2023-02-11T10:42:55.996Z,9.70
2023-02-11T10:45:36.829Z,11.02
2023-02-11T10:48:06.694Z,9.32
2023-02-11T10:50:35.470Z,11.38
2023-02-11T10:53:17.532Z,10.32
2023-02-11T10:55:54.967Z,10.57
2023-02-11T10:58:31.050Z,11.95
2023-02-11T11:01:00.221Z,10.75
2023-02-11T11:03:40.681Z,9.80
2023-02-11T11:06:09.893Z,10.65
2023-02-11T11:08:50.232Z,11.63
2023-02-11T11:11:23.941Z,10.75
2023-02-11T11:13:58.319Z,10.60
2023-02-11T11:16:34.165Z,10.60
2023-02-11T11:19:07.549Z,11.15
2023-02-11T11:21:55.814Z,11.27
2023-02-11T11:24:34.574Z,9.85
2023-02-11T11:27:04.639Z,9.95
2023-02-11T11:29:52.149Z,10.55
2023-02-11T11:32:32.607Z,11.82
2023-02-11T11:35:12.863Z,10.63
2023-02-11T11:37:40.104Z,10.45
2023-02-11T11:40:27.538Z,11.00
2023-02-11T11:43:12.602Z,10.85
2023-02-11T11:45:52.568Z,11.45
2023-02-11T11:48:28.788Z,10.87
2023-02-11T11:51:04.886Z,10.05
2023-02-11T11:53:37.687Z,11.82
2023-02-11T11:56:23.363Z,11.90
2023-02-11T11:58:51.076Z,11.00
2023-02-11T12:01:44.065Z,11.33
2023-02-11T12:04:16.995Z,11.60
2023-02-11T12:06:46.888Z,11.32
2023-02-11T12:09:35.444Z,12.52
2023-02-11T12:12:32.334Z,11.85
2023-02-11T12:15:11.355Z,11.83
2023-02-11T12:18:04.532Z,12.75
2023-02-11T12:20:43.529Z,12.73
2023-02-11T12:23:25.515Z,12.30
2023-02-11T12:26:18.280Z,11.90
2023-02-11T12:29:03.589Z,12.27
2023-02-11T12:32:17.941Z,12.73
2023-02-11T12:35:12.818Z,11.10
2023-02-11T12:37:58.968Z,13.25
2023-02-11T12:41:11.664Z,12.15
2023-02-11T12:43:44.192Z,12.83
2023-02-11T12:46:23.360Z,13.20
2023-02-11T12:49:05.831Z,12.07
2023-02-11T12:52:23.780Z,11.48
2023-02-11T12:55:29.948Z,14.23
2023-02-11T12:58:01.737Z,12.90
2023-02-11T13:01:04.749Z,13.10
2023-02-11T13:03:41.649Z,13.27
2023-02-11T13:06:16.236Z,11.60
2023-02-11T13:08:49.671Z,13.07
2023-02-11T13:11:41.372Z,11.43
2023-02-11T13:14:21.611Z,13.15
2023-02-11T13:16:51.038Z,12.48
2023-02-11T13:19:24.343Z,12.00
2023-02-11T13:22:19.062Z,10.82
2023-02-11T13:24:59.680Z,12.73
2023-02-11T13:27:40.941Z,11.98
2023-02-11T13:30:33.824Z,12.07
2023-02-11T13:33:01.081Z,12.45
2023-02-11T13:35:36.730Z,13.07
2023-02-11T13:38:17.334Z,12.33
2023-02-11T13:40:45.711Z,11.63
2023-02-11T13:43:34.214Z,12.73
2023-02-11T13:46:05.798Z,14.07
2023-02-11T13:48:45.975Z,13.18
2023-02-11T13:51:19.470Z,12.57
2023-02-11T13:53:51.490Z,12.38
2023-02-11T13:56:40.253Z,12.93
2023-02-11T13:59:33.835Z,11.68
2023-02-11T14:02:39.697Z,13.25
2023-02-11T14:05:25.132Z,13.70
2023-02-11T14:08:28.767Z,13.18
2023-02-11T14:11:33.047Z,13.40
2023-02-11T14:14:12.110Z,12.98
2023-02-11T14:16:59.619Z,12.93
2023-02-11T14:19:44.307Z,12.63
2023-02-11T14:22:48.033Z,13.25
2023-02-11T14:25:26.206Z,11.98
2023-02-11T14:28:08.324Z,13.63
2023-02-11T14:30:46.471Z,13.27
2023-02-11T14:33:40.787Z,13.17
2023-02-11T14:36:35.473Z,11.77
2023-02-11T14:39:35.523Z,12.68
2023-02-11T14:42:03.649Z,13.48
2023-02-11T14:44:33.218Z,12.40
2023-02-11T14:47:00.723Z,14.20
2023-02-11T14:49:34.039Z,13.52
2023-02-11T14:52:43.575Z,12.65
2023-02-11T14:55:39.560Z,13.07
2023-02-11T14:58:30.005Z,14.27
2023-02-11T15:01:33.912Z,14.20
2023-02-11T15:04:22.159Z,13.07
2023-02-11T15:06:49.788Z,13.07
2023-02-11T15:09:27.995Z,13.40
2023-02-11T15:11:57.825Z,13.52
2023-02-11T15:14:31.903Z,13.63
2023-02-11T15:17:04.524Z,13.57
2023-02-11T15:19:36.507Z,13.13
2023-02-11T15:22:22.110Z,14.68
2023-02-11T15:25:11.121Z,12.43
2023-02-11T15:27:41.119Z,12.43
2023-02-11T15:30:34.364Z,13.95
2023-02-11T15:33:06.066Z,12.80
2023-02-11T15:35:38.524Z,14.85
2023-02-11T15:38:06.275Z,14.30
2023-02-11T15:40:37.470Z,14.80
2023-02-11T15:43:10.326Z,13.48
2023-02-11T15:45:55.149Z,15.43
2023-02-11T15:48:36.383Z,14.77
2023-02-11T15:51:13.776Z,13.77
2023-02-11T15:53:43.388Z,15.50
2023-02-11T15:56:46.023Z,20.42
2023-02-11T15:59:26.725Z,19.38
2023-02-11T16:01:55.490Z,17.92
2023-02-11T16:04:25.936Z,16.73
2023-02-11T16:06:55.221Z,15.83
2023-02-11T16:09:31.715Z,15.20
2023-02-11T16:12:03.679Z,15.52
2023-02-11T16:14:42.237Z,15.40
2023-02-11T16:17:22.398Z,16.38
2023-02-11T16:19:51.211Z,15.40
2023-02-11T16:22:30.307Z,16.83
2023-02-11T16:24:59.686Z,18.67
2023-02-11T16:27:51.455Z,16.90
2023-02-11T16:30:40.588Z,16.13
2023-02-11T16:33:13.402Z,16.17
2023-02-11T16:35:50.140Z,16.80
2023-02-11T16:38:18.409Z,18.15
2023-02-11T16:40:50.124Z,16.25
2023-02-11T16:43:33.487Z,15.50
2023-02-11T16:46:00.755Z,14.70
2023-02-11T16:48:28.020Z,14.07
2023-02-11T16:50:55.698Z,17.58
2023-02-11T16:53:25.054Z,16.88
2023-02-11T16:55:54.386Z,16.23
2023-02-11T16:58:21.513Z,20.33
2023-02-11T17:00:49.026Z,18.23
2023-02-11T17:03:29.836Z,16.50
2023-02-11T17:05:57.283Z,17.45
2023-02-11T17:08:24.467Z,15.98
2023-02-11T17:10:52.025Z,15.80
2023-02-11T17:13:19.519Z,17.10
2023-02-11T17:15:46.873Z,17.38
2023-02-11T17:18:17.066Z,16.75
2023-02-11T17:20:44.319Z,16.45
2023-02-11T17:23:14.359Z,17.13
2023-02-11T17:25:41.628Z,16.25
2023-02-11T17:28:12.142Z,18.20
2023-02-11T17:30:43.557Z,17.65
2023-02-11T17:33:10.825Z,18.35
2023-02-11T17:35:40.543Z,17.93
2023-02-11T17:38:07.819Z,19.05
2023-02-11T17:40:35.041Z,17.85
2023-02-11T17:43:02.497Z,18.08
2023-02-11T17:45:30.082Z,18.80
2023-02-11T17:47:59.853Z,19.17
2023-02-11T17:50:37.004Z,17.55
2023-02-11T17:53:06.859Z,16.58
2023-02-11T17:55:38.640Z,16.70
2023-02-11T17:58:06.515Z,17.00
2023-02-11T18:00:39.706Z,15.80
2023-02-11T18:03:15.780Z,15.52
2023-02-11T18:05:43.183Z,16.92
2023-02-11T18:08:10.356Z,16.80
2023-02-11T18:10:41.964Z,16.77
2023-02-11T18:13:11.668Z,16.03
2023-02-11T18:15:42.012Z,16.92
2023-02-11T18:18:12.549Z,17.45
2023-02-11T18:20:42.785Z,16.63
2023-02-11T18:23:11.115Z,15.88
2023-02-11T18:25:42.644Z,17.00
2023-02-11T18:28:13.039Z,18.67
2023-02-11T18:30:40.391Z,16.13
2023-02-11T18:33:12.039Z,17.63
2023-02-11T18:35:43.590Z,18.33
2023-02-11T18:38:10.757Z,17.83
2023-02-11T18:40:41.214Z,17.88
2023-02-11T18:43:08.520Z,18.05
2023-02-11T18:45:35.705Z,18.30
2023-02-11T18:48:05.447Z,17.67
2023-02-11T18:50:32.582Z,17.90
2023-02-11T18:52:59.718Z,18.48
2023-02-11T18:55:27.213Z,19.92
2023-02-11T18:57:55.173Z,19.77
2023-02-11T19:00:23.079Z,21.65
2023-02-11T19:02:50.476Z,19.60
2023-02-11T19:05:17.676Z,20.98
2023-02-11T19:07:44.884Z,20.35
2023-02-11T19:10:15.011Z,19.42
2023-02-11T19:12:44.571Z,19.75
2023-02-11T19:15:11.799Z,19.10
2023-02-11T19:17:38.949Z,19.63
2023-02-11T19:20:07.315Z,18.27
2023-02-11T19:22:34.585Z,18.52
2023-02-11T19:25:03.823Z,19.25
2023-02-11T19:27:30.990Z,18.80
2023-02-11T19:29:58.151Z,19.85
2023-02-11T19:32:25.363Z,19.55
2023-02-11T19:34:53.233Z,19.50
2023-02-11T19:37:20.445Z,19.38
2023-02-11T19:39:47.928Z,19.93
2023-02-11T19:42:15.056Z,19.63
2023-02-11T19:44:42.203Z,19.42
2023-02-11T19:47:10.552Z,17.88
2023-02-11T19:49:37.619Z,19.98
2023-02-11T19:52:05.353Z,18.53
2023-02-11T19:54:32.727Z,20.95
2023-02-11T19:57:00.358Z,20.70
2023-02-11T19:59:27.858Z,22.35
2023-02-11T20:01:55.014Z,20.67
2023-02-11T20:04:23.963Z,24.27
2023-02-11T20:06:51.578Z,21.60
2023-02-11T20:09:19.135Z,20.25
2023-02-11T20:11:46.540Z,20.52
2023-02-11T20:14:17.452Z,21.05
2023-02-11T20:16:49.040Z,20.60
2023-02-11T20:19:21.861Z,20.98
2023-02-11T20:21:56.019Z,19.50
2023-02-11T20:24:24.574Z,20.80
2023-02-11T20:26:55.745Z,21.63
2023-02-11T20:29:24.790Z,22.43
2023-02-11T20:31:52.131Z,20.60
2023-02-11T20:34:19.407Z,21.40
2023-02-11T20:36:52.108Z,19.77
2023-02-11T20:39:22.404Z,20.45
2023-02-11T20:41:50.732Z,19.73
2023-02-11T20:44:18.079Z,21.27
2023-02-11T20:46:48.721Z,19.63
2023-02-11T20:49:20.932Z,20.38
2023-02-11T20:51:49.114Z,22.08
2023-02-11T20:54:19.004Z,21.57
2023-02-11T20:56:48.433Z,22.60
2023-02-11T20:59:16.919Z,21.90
2023-02-11T21:01:50.906Z,22.77
2023-02-11T21:04:28.056Z,22.38
2023-02-11T21:06:59.611Z,22.47
2023-02-11T21:09:34.342Z,22.20
2023-02-11T21:12:02.499Z,20.73
2023-02-11T21:14:30.490Z,22.17
2023-02-11T21:17:06.524Z,20.17
2023-02-11T21:19:35.984Z,21.53
2023-02-11T21:22:03.406Z,21.45
2023-02-11T21:24:33.134Z,21.67
2023-02-11T21:27:00.709Z,19.10
2023-02-11T21:29:28.073Z,19.85
2023-02-11T21:31:58.023Z,20.70
2023-02-11T21:34:27.702Z,23.48
2023-02-11T21:36:55.021Z,22.70
2023-02-11T21:39:22.408Z,22.48
2023-02-11T21:41:53.392Z,23.67
2023-02-11T21:44:20.548Z,22.20
2023-02-11T21:46:48.268Z,22.10
2023-02-11T21:49:15.462Z,22.55
2023-02-11T21:51:42.795Z,21.73
2023-02-11T21:54:11.648Z,21.52
2023-02-11T21:56:38.781Z,21.53
2023-02-11T21:59:05.944Z,19.58
2023-02-11T22:01:35.542Z,20.25
2023-02-11T22:04:03.142Z,20.67
2023-02-11T22:06:34.047Z,20.63
2023-02-11T22:09:09.689Z,21.63
2023-02-11T22:11:37.159Z,23.25
2023-02-11T22:14:05.188Z,22.67
2023-02-11T22:16:32.660Z,22.33
2023-02-11T22:19:02.326Z,22.65
2023-02-11T22:21:29.693Z,22.00
2023-02-11T22:23:57.370Z,21.67
2023-02-11T22:26:26.988Z,23.15
2023-02-11T22:28:55.412Z,22.02
2023-02-11T22:31:30.045Z,23.40
2023-02-11T22:33:58.021Z,21.50
2023-02-11T22:36:32.363Z,19.73
2023-02-11T22:39:12.232Z,21.42
2023-02-11T22:41:44.995Z,21.55
2023-02-11T22:44:12.881Z,20.40
2023-02-11T22:46:40.545Z,20.83
2023-02-11T22:49:07.865Z,21.55
2023-02-11T22:51:35.019Z,19.23
2023-02-11T22:54:05.876Z,18.90
2023-02-11T22:56:34.707Z,18.02
2023-02-11T22:59:05.661Z,17.97
2023-02-11T23:01:33.016Z,17.45
2023-02-11T23:04:06.005Z,18.98
2023-02-11T23:06:33.922Z,17.90
2023-02-11T23:09:08.614Z,18.15
2023-02-11T23:11:36.692Z,18.17
2023-02-11T23:14:08.724Z,17.58
2023-02-11T23:16:36.116Z,15.65
2023-02-11T23:19:09.966Z,17.75
2023-02-11T23:21:40.362Z,17.95
2023-02-11T23:24:14.488Z,16.53
2023-02-11T23:26:44.758Z,17.40
2023-02-11T23:29:12.080Z,16.98
2023-02-11T23:31:43.580Z,17.85
2023-02-11T23:34:11.354Z,17.17
2023-02-11T23:36:38.712Z,16.17
2023-02-11T23:39:06.277Z,15.57
2023-02-11T23:41:33.442Z,15.15
2023-02-11T23:44:00.626Z,17.45
2023-02-11T23:46:28.550Z,16.80
2023-02-11T23:48:56.124Z,16.20
2023-02-11T23:51:24.015Z,15.95
2023-02-11T23:53:52.704Z,16.58
2023-02-11T23:56:23.766Z,15.32
2023-02-11T23:58:53.543Z,16.88
